Time;durP1;ratioP1;P1;durP2;ratioP2;P2;SDS_P1;SDS_P2;PMS_P1;PMS_P2;Temp;Humidity;BMP_temperature;BMP_pressure;BME280_temperature;BME280_humidity;BME280_pressure;Samples;Min_cycle;Max_cycle;Signal;HPM_P1;HPM_P2
2022/11/19 00:01:14;;;;;;;30.83;14.73;;;;;;;14.34;52.01;100880.38;5049311;28;20048;-68
2022/11/19 00:03:41;;;;;;;34.07;14.67;;;;;;;14.95;50.88;100877.06;5047605;28;20480;-67
2022/11/19 00:06:14;;;;;;;34.50;15.53;;;;;;;14.39;51.18;100881.09;5047253;28;20087;-68
2022/11/19 00:08:40;;;;;;;30.73;14.53;;;;;;;15.09;50.33;100874.88;5046010;28;20145;-69
2022/11/19 00:11:12;;;;;;;27.70;14.73;;;;;;;14.49;51.73;100886.13;5047561;28;20021;-69
2022/11/19 00:13:38;;;;;;;35.37;15.20;;;;;;;13.96;52.69;100883.88;5048435;28;20115;-69
2022/11/19 00:16:06;;;;;;;28.90;14.50;;;;;;;14.70;51.37;100885.63;5048590;28;20033;-69
2022/11/19 00:18:32;;;;;;;25.43;14.37;;;;;;;15.25;50.00;100895.53;5046617;28;20025;-69
2022/11/19 00:21:08;;;;;;;30.90;15.00;;;;;;;14.81;49.63;100897.59;5046272;28;20037;-69
2022/11/19 00:23:34;;;;;;;33.00;15.10;;;;;;;15.69;48.83;100898.63;5049062;28;20033;-69
2022/11/19 00:26:10;;;;;;;34.53;15.60;;;;;;;14.96;49.59;100897.22;5049505;28;20535;-69
2022/11/19 00:28:36;;;;;;;30.97;14.50;;;;;;;15.05;49.92;100896.94;5048138;28;20033;-68
2022/11/19 00:31:04;;;;;;;28.87;15.43;;;;;;;14.80;50.41;100901.16;5049373;28;20025;-69
2022/11/19 00:33:30;;;;;;;28.80;14.33;;;;;;;14.94;49.92;100891.13;5048675;28;20390;-68
2022/11/19 00:35:56;;;;;;;35.20;15.00;;;;;;;14.37;50.34;100901.31;5047995;28;20032;-69
2022/11/19 00:38:21;;;;;;;28.57;13.73;;;;;;;14.24;51.81;100902.50;5055699;28;20036;-69
2022/11/19 00:40:47;;;;;;;28.90;14.90;;;;;;;14.69;51.46;100894.41;5050569;28;20479;-68
2022/11/19 00:43:57;;;;;;;30.80;14.30;;;;;;;14.44;50.19;100904.66;5052772;28;20029;-68
2022/11/19 00:45:58;;;;;;;34.00;15.73;;;;;;;14.26;51.42;100905.97;5038696;28;20124;-68
2022/11/19 00:48:23;;;;;;;33.37;16.33;;;;;;;14.59;50.49;100908.69;5055365;28;20128;-67
2022/11/19 00:50:48;;;;;;;31.13;15.17;;;;;;;14.80;50.46;100919.59;5049606;28;20052;-67
2022/11/19 00:53:14;;;;;;;33.20;15.10;;;;;;;14.38;50.68;100916.19;5050705;28;20025;-67
2022/11/19 00:55:39;;;;;;;35.43;14.50;;;;;;;13.66;52.58;100921.34;5052763;28;20056;-67
2022/11/19 00:58:04;;;;;;;33.17;15.70;;;;;;;14.43;51.33;100924.81;5083272;28;20078;-67
2022/11/19 01:00:30;;;;;;;32.20;15.67;;;;;;;14.15;51.14;100934.25;5047122;28;20372;-67
2022/11/19 01:02:56;;;;;;;39.60;17.67;;;;;;;14.24;50.24;100934.06;5049630;28;20028;-67
2022/11/19 01:05:22;;;;;;;34.30;15.90;;;;;;;13.90;51.66;100932.19;5051393;28;20025;-67
2022/11/19 01:07:48;;;;;;;37.40;17.47;;;;;;;14.62;49.70;100939.28;5052855;28;20057;-68
2022/11/19 01:10:14;;;;;;;39.43;16.97;;;;;;;14.41;50.39;100934.53;5051209;28;20029;-67
2022/11/19 01:13:33;;;;;;;36.10;17.40;;;;;;;13.50;51.90;100940.94;5051577;28;20518;-67
2022/11/19 01:15:24;;;;;;;34.40;15.87;;;;;;;14.43;50.17;100940.59;5052411;28;20406;-67
2022/11/19 01:17:50;;;;;;;34.33;17.13;;;;;;;14.37;50.95;100943.38;5051843;28;20037;-67
2022/11/19 01:20:15;;;;;;;34.73;17.83;;;;;;;14.41;51.23;100942.41;5052860;28;20040;-67
2022/11/19 01:22:41;;;;;;;35.00;16.97;;;;;;;14.17;51.77;100949.09;5050297;28;20036;-67
2022/11/19 01:25:06;;;;;;;35.67;17.17;;;;;;;14.47;49.87;100945.81;5051417;28;20444;-67
2022/11/19 01:27:32;;;;;;;36.37;18.30;;;;;;;13.46;52.37;100955.03;5050898;28;20461;-67
2022/11/19 01:29:57;;;;;;;42.33;19.27;;;;;;;13.87;51.14;100955.91;5051988;28;20147;-68
2022/11/19 01:32:22;;;;;;;36.87;17.90;;;;;;;13.34;51.99;100967.47;5053957;28;20037;-68
2022/11/19 01:34:49;;;;;;;34.03;16.10;;;;;;;14.01;51.38;100968.75;5048910;28;20025;-68
2022/11/19 01:37:14;;;;;;;35.90;17.33;;;;;;;14.45;49.26;100969.47;5054105;28;20524;-68
2022/11/19 01:39:39;;;;;;;37.20;18.37;;;;;;;14.22;50.41;100973.53;5052109;28;20025;-67
2022/11/19 01:42:48;;;;;;;42.37;18.60;;;;;;;12.71;53.54;100972.09;5049245;28;20041;-67
2022/11/19 01:45:01;;;;;;;38.27;17.47;;;;;;;12.72;53.25;100976.44;5049043;28;20051;-68
2022/11/19 01:47:27;;;;;;;38.67;17.80;;;;;;;13.13;51.95;100973.13;5038202;28;20032;-67
2022/11/19 01:49:53;;;;;;;33.23;17.00;;;;;;;12.72;52.42;100973.81;5049962;28;20039;-67
2022/11/19 01:52:18;;;;;;;32.97;17.83;;;;;;;13.62;51.46;100980.06;5051062;28;20033;-68
2022/11/19 01:54:47;;;;;;;35.60;18.33;;;;;;;13.02;51.58;100979.44;5048367;28;20028;-67
2022/11/19 01:57:15;;;;;;;39.43;18.47;;;;;;;12.91;51.74;100978.75;5083604;28;20393;-68
2022/11/19 01:59:41;;;;;;;37.40;18.03;;;;;;;13.58;51.02;100976.63;5049799;28;20025;-68
2022/11/19 02:02:07;;;;;;;34.27;17.00;;;;;;;13.45;51.16;100982.16;5048739;28;20045;-67
2022/11/19 02:04:34;;;;;;;35.17;17.97;;;;;;;13.15;51.36;100982.69;5050386;28;20037;-67
2022/11/19 02:07:00;;;;;;;32.87;17.63;;;;;;;13.68;49.68;100984.34;5047657;28;20075;-68
2022/11/19 02:09:27;;;;;;;42.73;17.93;;;;;;;12.75;51.99;100982.50;5049166;28;20047;-68
2022/11/19 02:12:17;;;;;;;37.17;18.37;;;;;;;13.32;50.27;100985.00;5051201;28;20404;-68
2022/11/19 02:15:10;;;;;;;38.67;18.00;;;;;;;13.22;51.49;100991.31;5038914;28;20033;-68
2022/11/19 02:17:50;;;;;;;34.23;18.03;;;;;;;12.31;53.88;100988.44;5049055;28;20029;-68
2022/11/19 02:20:28;;;;;;;32.00;17.50;;;;;;;12.11;54.24;100990.50;5049570;28;20037;-68
2022/11/19 02:23:18;;;;;;;37.23;17.40;;;;;;;12.07;52.89;100994.03;5050725;28;20025;-68
2022/11/19 02:26:16;;;;;;;32.37;16.17;;;;;;;12.19;52.67;100996.50;5047463;28;20062;-67
2022/11/19 02:29:06;;;;;;;38.57;18.73;;;;;;;13.29;51.00;100995.56;5050434;28;20024;-68
2022/11/19 02:31:51;;;;;;;37.57;17.57;;;;;;;12.51;52.44;100992.50;5053315;28;20405;-68
2022/11/19 02:34:26;;;;;;;38.90;18.10;;;;;;;11.91;54.72;101004.69;5048964;28;20478;-68
2022/11/19 02:37:06;;;;;;;43.07;19.03;;;;;;;12.60;52.80;100994.13;5047883;28;20114;-68
2022/11/19 02:39:40;;;;;;;40.43;19.93;;;;;;;12.48;53.19;101003.06;5054979;28;20024;-68
2022/11/19 02:42:20;;;;;;;39.30;18.90;;;;;;;12.58;51.95;101007.25;5048020;28;20084;-68
2022/11/19 02:45:04;;;;;;;41.97;18.23;;;;;;;12.02;54.97;101008.06;5048804;28;20029;-68
2022/11/19 02:47:51;;;;;;;35.80;17.70;;;;;;;13.20;51.72;101011.47;5048544;28;20028;-68
2022/11/19 02:50:24;;;;;;;40.10;17.77;;;;;;;12.31;52.83;101019.91;5044520;28;20033;-68
2022/11/19 02:52:50;;;;;;;39.60;18.90;;;;;;;11.66;54.27;101014.56;5046179;28;20017;-68
2022/11/19 02:55:18;;;;;;;40.50;18.53;;;;;;;11.99;53.45;101023.81;5047727;28;20386;-68
2022/11/19 02:57:50;;;;;;;39.93;19.00;;;;;;;12.72;51.52;101018.41;5050382;28;20414;-68
2022/11/19 03:06:03;;;;;;;38.47;18.70;;;;;;;12.27;52.00;101031.31;5048667;28;20044;-67
2022/11/19 03:08:28;;;;;;;39.22;18.10;;;;;;;13.23;50.43;101035.91;5049073;28;20055;-68
2022/11/19 03:11:17;;;;;;;37.30;18.97;;;;;;;12.81;50.37;101024.41;5049937;28;20522;-68
2022/11/19 03:17:16;;;;;;;36.27;19.13;;;;;;;11.74;53.05;101038.94;5049124;28;20071;-68
2022/11/19 03:19:50;;;;;;;39.50;19.53;;;;;;;11.43;54.51;101034.03;5049312;28;20118;-68
2022/11/19 03:22:36;;;;;;;37.17;18.80;;;;;;;11.50;53.66;101035.69;5048825;28;20033;-68
2022/11/19 03:25:11;;;;;;;34.83;17.17;;;;;;;11.74;51.74;101038.94;5048604;28;20045;-68
2022/11/19 03:27:44;;;;;;;34.97;19.53;;;;;;;11.71;52.38;101039.81;5048829;28;20033;-68
2022/11/19 03:30:11;;;;;;;37.43;19.60;;;;;;;12.02;52.56;101042.13;5047875;28;20498;-68
2022/11/19 03:32:46;;;;;;;37.83;18.60;;;;;;;11.80;53.03;101044.09;5048446;28;20044;-67
2022/11/19 03:35:19;;;;;;;35.50;19.10;;;;;;;11.19;52.65;101042.97;5046977;28;20035;-68
2022/11/19 03:37:46;;;;;;;;;;;;;;;12.52;50.30;101037.06;5049338;28;20085;-68
2022/11/19 03:40:14;;;;;;;37.73;18.23;;;;;;;12.10;50.28;101035.91;5047952;28;20365;-68
2022/11/19 03:42:44;;;;;;;36.90;19.03;;;;;;;12.18;50.60;101039.28;5049378;28;20064;-68
2022/11/19 03:45:14;;;;;;;35.57;18.90;;;;;;;11.61;52.47;101043.44;5046750;28;20043;-69
2022/11/19 03:47:41;;;;;;;33.47;18.30;;;;;;;11.42;52.73;101049.75;5051188;28;20508;-68
2022/11/19 03:50:45;;;;;;;37.50;19.17;;;;;;;12.66;50.09;101041.25;5049096;28;20025;-68
2022/11/19 03:53:10;;;;;;;;;;;;;;;12.48;50.17;101053.72;5046637;28;20479;-68
2022/11/19 03:55:47;;;;;;;33.57;17.60;;;;;;;12.85;49.31;101052.31;5040274;28;20011;-68
2022/11/19 03:58:12;;;;;;;37.23;18.57;;;;;;;12.28;49.90;101061.88;5047826;28;20041;-68
2022/11/19 04:00:38;;;;;;;35.77;19.80;;;;;;;12.04;50.99;101063.91;5048436;28;20054;-68
2022/11/19 04:03:03;;;;;;;33.57;19.57;;;;;;;12.47;49.56;101062.47;5047346;28;20047;-68
2022/11/19 04:05:29;;;;;;;37.03;19.30;;;;;;;11.74;50.46;101061.63;5045604;28;20535;-68
2022/11/19 04:07:54;;;;;;;39.43;19.93;;;;;;;11.77;51.44;101061.59;5043898;28;20064;-68
2022/11/19 04:10:20;;;;;;;40.50;20.00;;;;;;;12.60;49.17;101065.81;5048691;28;20035;-68
2022/11/19 04:12:45;;;;;;;43.23;21.47;;;;;;;11.22;51.79;101078.72;5048092;28;20044;-68
2022/11/19 04:15:14;;;;;;;39.83;20.40;;;;;;;11.48;52.21;101083.72;5084315;28;20032;-68
2022/11/19 04:17:40;;;;;;;41.00;22.30;;;;;;;11.92;50.84;101089.38;5051282;28;20584;-68
2022/11/19 04:20:07;;;;;;;41.57;21.17;;;;;;;11.00;52.79;101078.91;5052215;28;20021;-68
2022/11/19 04:22:32;;;;;;;40.40;20.13;;;;;;;11.50;51.86;101087.19;5049938;28;20046;-68
2022/11/19 04:24:58;;;;;;;42.17;21.60;;;;;;;10.56;53.40;101091.38;5049227;28;20045;-68
2022/11/19 04:27:23;;;;;;;46.53;22.13;;;;;;;11.80;52.00;101090.34;5048861;28;20029;-68
2022/11/19 04:29:49;;;;;;;44.57;22.83;;;;;;;11.19;52.62;101092.69;5052664;28;20052;-68
2022/11/19 04:32:14;;;;;;;48.67;23.83;;;;;;;11.41;52.94;101102.97;5052645;28;20048;-67
2022/11/19 04:34:40;;;;;;;48.27;22.47;;;;;;;11.71;52.37;101097.44;5051502;28;20071;-68
2022/11/19 04:37:05;;;;;;;43.83;22.63;;;;;;;11.42;52.92;101102.97;5052085;28;20086;-68
2022/11/19 04:39:31;;;;;;;42.43;22.30;;;;;;;12.03;50.86;101104.13;5050624;28;20074;-68
2022/11/19 04:41:56;;;;;;;46.50;23.67;;;;;;;11.08;52.64;101112.84;5050829;28;20029;-68
2022/11/19 04:44:21;;;;;;;45.50;23.07;;;;;;;10.92;53.31;101109.47;5051751;28;20119;-68
2022/11/19 04:46:47;;;;;;;49.40;23.90;;;;;;;10.98;52.92;101112.91;5051108;28;20057;-68
2022/11/19 04:49:12;;;;;;;46.27;22.80;;;;;;;10.38;53.29;101122.88;5050675;28;20516;-68
2022/11/19 04:51:38;;;;;;;49.77;24.67;;;;;;;11.21;51.98;101122.34;5049626;28;20116;-68
2022/11/19 04:54:03;;;;;;;54.40;24.53;;;;;;;10.94;50.91;101124.28;5085708;28;20025;-68
2022/11/19 04:56:29;;;;;;;50.50;24.20;;;;;;;11.17;51.79;101131.09;5053202;28;20101;-68
2022/11/19 04:58:54;;;;;;;49.10;23.80;;;;;;;10.19;53.65;101133.34;5052108;28;20037;-68
2022/11/19 05:01:19;;;;;;;53.93;26.63;;;;;;;10.82;52.65;101129.59;5048464;28;20486;-68
2022/11/19 05:03:46;;;;;;;53.17;26.27;;;;;;;10.62;53.68;101143.66;5052329;28;20482;-68
2022/11/19 05:06:11;;;;;;;55.30;27.23;;;;;;;10.14;53.66;101140.34;5049277;28;20458;-68
2022/11/19 05:08:37;;;;;;;51.83;26.97;;;;;;;11.40;51.09;101132.66;5050199;28;20055;-68
2022/11/19 05:11:02;;;;;;;50.67;26.50;;;;;;;10.45;51.47;101135.03;5050384;28;20028;-68
2022/11/19 05:13:28;;;;;;;60.50;27.40;;;;;;;10.49;53.21;101136.75;5052737;28;20029;-68
2022/11/19 05:15:53;;;;;;;51.43;26.30;;;;;;;11.41;50.33;101134.41;5050801;28;20032;-68
2022/11/19 05:18:18;;;;;;;50.97;24.97;;;;;;;11.03;51.33;101139.03;5048260;28;20032;-68
2022/11/19 05:20:44;;;;;;;57.67;27.90;;;;;;;11.33;51.07;101143.19;5052012;28;20112;-68
2022/11/19 05:23:09;;;;;;;53.07;26.40;;;;;;;10.47;51.71;101148.97;5049723;28;20119;-68
2022/11/19 05:25:34;;;;;;;60.43;27.73;;;;;;;10.40;52.80;101147.22;5050244;28;20024;-69
2022/11/19 05:28:00;;;;;;;58.50;27.17;;;;;;;10.05;52.20;101145.59;5053241;28;20461;-68
2022/11/19 05:30:25;;;;;;;55.77;27.23;;;;;;;9.77;53.60;101148.28;5050642;28;20041;-68
2022/11/19 05:32:50;;;;;;;57.17;27.57;;;;;;;11.09;51.12;101146.00;5049182;28;20127;-68
2022/11/19 05:35:16;;;;;;;49.90;25.03;;;;;;;10.18;52.45;101155.13;5054264;28;20063;-68
2022/11/19 05:37:41;;;;;;;51.90;25.63;;;;;;;9.95;52.80;101158.66;5050346;28;20098;-68
2022/11/19 05:40:07;;;;;;;48.20;24.67;;;;;;;10.08;53.22;101158.63;5053544;28;20047;-68
2022/11/19 05:42:32;;;;;;;47.80;25.00;;;;;;;10.26;52.63;101166.44;5051069;28;20143;-68
2022/11/19 05:44:58;;;;;;;51.67;25.90;;;;;;;9.87;53.08;101168.25;5050518;28;20390;-68
2022/11/19 05:47:23;;;;;;;48.67;25.13;;;;;;;10.27;52.88;101175.13;5066061;28;20127;-68
2022/11/19 05:49:48;;;;;;;49.93;25.73;;;;;;;9.91;52.57;101179.56;5050787;28;20025;-69
2022/11/19 05:52:14;;;;;;;47.37;25.30;;;;;;;10.53;51.16;101190.75;5083903;28;20024;-68
2022/11/19 05:54:39;;;;;;;49.30;23.53;;;;;;;10.74;50.41;101181.91;5084836;28;20051;-68
2022/11/19 05:57:04;;;;;;;46.50;24.50;;;;;;;11.36;49.83;101177.19;5050909;28;20474;-68
2022/11/19 05:59:30;;;;;;;47.00;24.17;;;;;;;9.78;52.39;101173.47;5082327;28;20036;-68
2022/11/19 06:01:56;;;;;;;44.13;22.57;;;;;;;10.32;50.68;101176.84;5050562;28;20115;-68
2022/11/19 06:04:22;;;;;;;46.70;24.30;;;;;;;11.20;49.37;101178.16;5084176;28;20025;-68
2022/11/19 06:06:47;;;;;;;49.83;26.07;;;;;;;10.45;49.95;101182.06;5050319;28;20559;-68
2022/11/19 06:09:12;;;;;;;51.97;24.17;;;;;;;10.18;50.79;101192.56;5052288;28;20390;-68
2022/11/19 06:11:46;;;;;;;48.80;25.37;;;;;;;10.16;52.04;101185.59;5082296;28;20037;-68
2022/11/19 06:14:13;;;;;;;44.90;22.53;;;;;;;9.01;52.42;101200.41;5039249;28;20166;-68
2022/11/19 06:16:38;;;;;;;47.77;25.27;;;;;;;9.95;51.39;101196.97;5053039;28;20029;-68
2022/11/19 06:19:03;;;;;;;36.27;19.10;;;;;;;8.43;54.03;101214.06;5051840;28;20433;-68
2022/11/19 06:21:29;;;;;;;47.40;24.10;;;;;;;9.63;52.34;101198.75;5049957;28;20033;-68
2022/11/19 06:23:54;;;;;;;48.93;24.13;;;;;;;10.45;50.28;101211.66;5050033;28;20150;-68
2022/11/19 06:26:24;;;;;;;46.47;23.33;;;;;;;10.28;50.61;101216.91;5040280;28;20059;-68
2022/11/19 06:28:50;;;;;;;44.87;23.97;;;;;;;9.54;51.35;101222.22;5055141;28;20025;-68
2022/11/19 06:31:16;;;;;;;45.40;23.93;;;;;;;9.56;51.78;101225.72;5045939;28;20402;-69
2022/11/19 06:33:41;;;;;;;44.03;22.03;;;;;;;9.39;52.85;101230.91;5052417;28;20068;-68
2022/11/19 06:36:07;;;;;;;39.13;20.47;;;;;;;9.47;51.48;101226.56;5048712;28;20032;-68
2022/11/19 06:38:32;;;;;;;43.77;21.43;;;;;;;9.15;52.79;101240.44;5049413;28;20043;-69
2022/11/19 06:40:58;;;;;;;46.00;22.10;;;;;;;9.41;51.63;101236.13;5048467;28;20409;-68
2022/11/19 06:43:23;;;;;;;38.67;21.43;;;;;;;9.26;52.37;101232.63;5050019;28;20077;-68
2022/11/19 06:45:48;;;;;;;43.07;20.90;;;;;;;9.21;52.13;101239.56;5051078;28;20025;-68
2022/11/19 06:48:14;;;;;;;46.40;21.57;;;;;;;9.19;52.42;101246.53;5044718;28;20475;-69
2022/11/19 06:50:39;;;;;;;44.33;22.80;;;;;;;9.16;51.81;101239.56;5053620;28;20047;-68
2022/11/19 06:53:04;;;;;;;41.87;22.23;;;;;;;10.52;49.81;101246.50;5049608;28;20029;-68
2022/11/19 06:55:30;;;;;;;47.50;24.10;;;;;;;9.77;50.05;101239.66;5051835;28;20040;-68
2022/11/19 06:57:56;;;;;;;49.23;23.10;;;;;;;8.71;51.59;101251.59;5078245;28;20032;-68
2022/11/19 07:00:22;;;;;;;45.20;22.23;;;;;;;9.79;50.41;101258.78;5077429;28;20403;-68
2022/11/19 07:02:47;;;;;;;45.77;22.10;;;;;;;9.48;50.75;101258.78;5049140;28;20110;-68
2022/11/19 07:05:12;;;;;;;47.80;23.57;;;;;;;9.39;51.41;101261.34;5050194;28;20195;-68
2022/11/19 07:07:38;;;;;;;47.60;22.87;;;;;;;9.56;51.22;101267.47;5048661;28;20486;-68
2022/11/19 07:10:03;;;;;;;44.93;23.67;;;;;;;10.00;48.86;101264.00;5047921;28;20107;-68
2022/11/19 07:12:29;;;;;;;47.50;23.13;;;;;;;9.25;50.06;101267.41;5037494;28;20029;-68
2022/11/19 07:14:54;;;;;;;47.77;24.77;;;;;;;8.59;52.56;101275.84;5044191;28;20176;-68
2022/11/19 07:17:20;;;;;;;44.97;21.27;;;;;;;8.97;51.47;101282.09;5050762;28;20021;-68
2022/11/19 07:19:45;;;;;;;48.23;23.00;;;;;;;9.43;51.14;101281.38;5051035;28;20028;-68
2022/11/19 07:22:10;;;;;;;47.90;21.67;;;;;;;9.83;49.29;101286.63;5048880;28;20067;-68
2022/11/19 07:24:36;;;;;;;43.43;22.17;;;;;;;9.83;49.06;101291.84;5082404;28;20157;-68
2022/11/19 07:27:01;;;;;;;47.23;22.60;;;;;;;9.25;50.41;101292.63;5048271;28;20032;-69
2022/11/19 07:29:27;;;;;;;44.13;22.87;;;;;;;9.63;49.88;101284.88;5048044;28;20473;-68
2022/11/19 07:31:52;;;;;;;50.73;24.23;;;;;;;9.24;49.81;101298.72;5050422;28;20394;-68
2022/11/19 07:34:18;;;;;;;49.67;24.60;;;;;;;9.59;49.95;101298.78;5048676;28;20036;-69
2022/11/19 07:36:44;;;;;;;38.13;19.20;;;;;;;8.46;51.76;101300.09;5050427;28;20037;-68
2022/11/19 07:39:10;;;;;;;47.17;22.87;;;;;;;10.36;49.23;101292.72;5047878;28;20035;-68
2022/11/19 07:44:19;;;;;;;50.93;23.40;;;;;;;10.19;47.83;101295.31;5048369;28;20048;-68
2022/11/19 07:46:44;;;;;;;45.03;21.67;;;;;;;9.38;49.94;101306.56;5049891;28;20036;-68
2022/11/19 07:49:10;;;;;;;45.77;23.30;;;;;;;9.90;48.60;101303.16;5054748;28;20029;-69
2022/11/19 07:51:35;;;;;;;42.03;20.00;;;;;;;9.00;50.10;101314.28;5053029;28;20029;-68
2022/11/19 07:54:01;;;;;;;48.13;22.53;;;;;;;9.46;50.38;101308.31;5053051;28;20375;-68
2022/11/19 07:56:26;;;;;;;45.47;23.17;;;;;;;10.00;49.66;101311.00;5053140;28;20024;-68
2022/11/19 07:58:52;;;;;;;47.87;23.87;;;;;;;9.81;49.31;101319.72;5051731;28;20460;-69
2022/11/19 08:01:20;;;;;;;43.00;21.10;;;;;;;9.36;50.17;101326.59;5053831;28;20061;-69
2022/11/19 08:03:47;;;;;;;46.53;22.10;;;;;;;9.68;48.95;101330.13;5068795;28;20090;-68
2022/11/19 08:06:16;;;;;;;43.17;21.67;;;;;;;9.36;49.16;101326.59;5052694;28;20482;-69
2022/11/19 08:08:43;;;;;;;45.23;22.03;;;;;;;9.68;48.75;101332.75;5050863;28;20401;-68
2022/11/19 08:11:10;;;;;;;47.43;23.47;;;;;;;10.31;48.66;101329.25;5052074;28;20494;-68
2022/11/19 08:13:36;;;;;;;46.97;22.80;;;;;;;9.73;49.67;101331.88;5051139;28;20028;-68
2022/11/19 08:16:03;;;;;;;40.00;21.10;;;;;;;10.41;47.51;101337.13;5051247;28;20039;-69
2022/11/19 08:18:30;;;;;;;45.97;23.03;;;;;;;10.24;48.04;101342.34;5048341;28;20041;-68
2022/11/19 08:21:05;;;;;;;42.73;22.47;;;;;;;10.01;48.33;101338.88;5049140;28;20025;-69
2022/11/19 08:23:32;;;;;;;43.70;20.80;;;;;;;10.16;47.73;101342.34;5052230;28;20386;-68
2022/11/19 08:25:57;;;;;;;44.80;24.00;;;;;;;10.42;47.47;101349.34;5052748;28;20037;-69
2022/11/19 08:28:23;;;;;;;43.67;21.20;;;;;;;10.00;47.87;101342.34;5053539;28;20493;-68
2022/11/19 08:30:48;;;;;;;41.23;21.37;;;;;;;9.59;48.73;101344.88;5054007;28;20031;-68
2022/11/19 08:33:13;;;;;;;41.67;21.73;;;;;;;10.20;47.89;101344.09;5085597;28;20025;-68
2022/11/19 08:35:39;;;;;;;40.43;20.80;;;;;;;10.01;49.60;101341.50;5051684;28;20175;-68
2022/11/19 08:38:04;;;;;;;38.03;20.23;;;;;;;11.06;46.64;101348.31;5053770;28;20066;-69
2022/11/19 08:40:29;;;;;;;42.37;21.97;;;;;;;10.56;46.95;101346.69;5052518;28;20020;-68
2022/11/19 08:43:01;;;;;;;39.40;19.90;;;;;;;9.57;48.54;101350.09;5052947;28;20067;-69
2022/11/19 08:45:31;;;;;;;38.83;19.97;;;;;;;10.38;46.65;101353.69;5034153;28;20021;-69
2022/11/19 08:47:59;;;;;;;39.60;18.97;;;;;;;9.33;48.35;101357.00;5048717;28;20030;-69
2022/11/19 08:50:25;;;;;;;37.23;19.57;;;;;;;9.13;48.53;101358.66;5033638;28;20026;-68
2022/11/19 08:52:56;;;;;;;38.90;20.53;;;;;;;9.63;48.38;101357.97;5031917;28;20440;-68
2022/11/19 08:55:21;;;;;;;34.50;17.67;;;;;;;9.23;48.62;101367.38;5051076;28;20374;-69
2022/11/19 08:57:47;;;;;;;34.57;17.97;;;;;;;8.94;48.90;101369.03;5051725;28;20039;-68
2022/11/19 09:00:13;;;;;;;35.83;19.03;;;;;;;9.83;47.41;101375.41;5051992;28;20057;-69
2022/11/19 09:02:38;;;;;;;33.63;17.73;;;;;;;9.97;47.74;101378.91;5051917;28;20119;-68
2022/11/19 09:05:04;;;;;;;40.60;18.47;;;;;;;10.22;46.18;101378.94;5052576;28;20525;-68
2022/11/19 09:07:29;;;;;;;35.93;18.47;;;;;;;9.76;47.45;101384.09;5085376;28;20031;-68
2022/11/19 09:09:55;;;;;;;36.33;19.37;;;;;;;10.38;46.50;101384.19;5051643;28;20036;-68
2022/11/19 09:12:20;;;;;;;35.97;19.53;;;;;;;9.98;46.88;101390.22;5052162;28;20470;-68
2022/11/19 09:14:45;;;;;;;38.20;19.20;;;;;;;11.10;44.77;101376.19;5051496;28;20033;-69
2022/11/19 09:17:11;;;;;;;38.50;19.73;;;;;;;10.53;46.10;101384.16;5052018;28;20044;-69
2022/11/19 09:19:36;;;;;;;35.63;18.93;;;;;;;10.76;46.74;101385.88;5050457;28;20112;-69
2022/11/19 09:22:02;;;;;;;33.87;17.30;;;;;;;10.82;44.55;101381.50;5065824;28;20432;-68
2022/11/19 09:24:27;;;;;;;38.63;18.30;;;;;;;9.93;46.66;101387.63;5054279;28;20480;-69
2022/11/19 09:26:52;;;;;;;38.17;18.57;;;;;;;10.53;45.96;101394.63;5065182;28;20032;-69
2022/11/19 09:29:18;;;;;;;35.67;18.57;;;;;;;10.53;46.16;101399.84;5051514;28;20412;-69
2022/11/19 09:31:43;;;;;;;31.10;17.50;;;;;;;9.65;46.71;101407.56;5050071;28;20020;-69
2022/11/19 09:34:08;;;;;;;36.10;18.30;;;;;;;9.54;46.96;101410.13;5050406;28;20059;-69
2022/11/19 09:36:34;;;;;;;34.80;18.20;;;;;;;9.11;47.26;101410.81;5050936;28;20017;-69
2022/11/19 09:39:01;;;;;;;34.93;18.17;;;;;;;9.61;46.48;101411.88;5039817;28;20410;-69
2022/11/19 09:41:49;;;;;;;36.67;18.77;;;;;;;9.39;47.32;101417.91;5031508;28;20124;-69
2022/11/19 09:44:46;;;;;;;34.43;18.83;;;;;;;9.36;47.35;101410.06;5036253;28;20036;-70
2022/11/19 09:47:18;;;;;;;30.13;15.93;;;;;;;9.17;47.46;101420.41;5051422;28;20035;-68
2022/11/19 09:49:59;;;;;;;34.53;17.03;;;;;;;9.75;46.92;101413.66;5052340;28;20029;-69
2022/11/19 09:52:27;;;;;;;34.93;17.23;;;;;;;9.95;46.06;101421.56;5052163;28;20528;-70
2022/11/19 09:54:55;;;;;;;32.50;17.33;;;;;;;8.61;47.80;101443.53;5049183;28;20023;-69
2022/11/19 09:57:58;;;;;;;35.03;16.93;;;;;;;9.41;47.70;101424.00;5051704;28;20067;-70
2022/11/19 10:00:29;;;;;;;34.22;17.58;;;;;;;10.25;45.68;101425.97;5029665;28;20502;-70
2022/11/19 10:02:56;;;;;;;35.57;17.67;;;;;;;9.42;46.42;101425.75;5050646;28;20091;-70
2022/11/19 10:05:33;;;;;;;35.80;18.93;;;;;;;9.84;46.42;101424.16;5050713;28;20036;-70
2022/11/19 10:08:26;;;;;;;35.20;18.53;;;;;;;10.05;46.24;101428.53;5050632;28;20037;-70
2022/11/19 10:11:11;;;;;;;36.45;19.77;;;;;;;10.11;46.11;101443.34;5053700;28;20394;-70
2022/11/19 10:13:49;;;;;;;33.43;15.67;;;;;;;8.65;47.63;101447.91;5051414;28;20021;-69
2022/11/19 10:16:42;;;;;;;35.47;17.70;;;;;;;8.95;47.68;101441.13;5048876;28;20115;-69
2022/11/19 10:19:33;;;;;;;37.73;17.87;;;;;;;10.13;45.43;101444.22;5050065;28;20036;-70
2022/11/19 10:22:14;;;;;;;35.37;17.77;;;;;;;9.27;46.00;101445.69;5050409;28;20021;-70
2022/11/19 10:24:43;;;;;;;33.27;17.17;;;;;;;9.61;46.65;101445.81;5050384;28;20367;-69
2022/11/19 10:27:24;;;;;;;35.37;17.83;;;;;;;9.41;46.60;101442.25;5048950;28;20091;-69
2022/11/19 10:29:55;;;;;;;33.57;16.57;;;;;;;8.15;48.45;101450.91;5051196;28;20120;-69
2022/11/19 10:32:37;;;;;;;33.30;16.57;;;;;;;7.79;49.53;101450.50;5048963;28;20021;-69
2022/11/19 10:35:13;;;;;;;37.70;19.23;;;;;;;9.59;46.91;101447.56;5051204;28;20104;-70
2022/11/19 10:37:47;;;;;;;31.33;16.37;;;;;;;8.17;48.48;101449.16;5047095;28;20036;-70
2022/11/19 10:40:18;;;;;;;33.60;16.33;;;;;;;9.20;47.15;101451.72;5045714;28;20032;-69
2022/11/19 10:42:49;;;;;;;32.83;17.13;;;;;;;9.52;46.45;101453.63;5078225;28;20116;-69
2022/11/19 10:45:18;;;;;;;40.07;18.87;;;;;;;9.46;45.18;101450.97;5049478;28;20029;-70
2022/11/19 10:48:10;;;;;;;32.73;17.00;;;;;;;8.98;46.67;101451.63;5054477;28;20055;-70
2022/11/19 10:50:36;;;;;;;28.60;16.43;;;;;;;7.98;48.18;101454.19;5049867;28;20035;-69
2022/11/19 10:53:04;;;;;;;33.50;17.13;;;;;;;8.68;48.00;101441.81;5048165;28;20017;-69
2022/11/19 10:55:40;;;;;;;35.10;17.53;;;;;;;8.95;47.03;101435.91;5050449;28;20021;-69
2022/11/19 10:58:24;;;;;;;34.03;17.37;;;;;;;9.24;45.67;101430.00;5049347;28;20029;-69
2022/11/19 11:00:55;;;;;;;34.37;18.00;;;;;;;8.70;47.06;101447.06;5046592;28;20139;-70
2022/11/19 11:03:23;;;;;;;33.53;17.43;;;;;;;9.56;45.17;101431.00;5052557;28;20104;-70
2022/11/19 11:06:08;;;;;;;32.47;15.77;;;;;;;9.55;45.30;101427.53;5048514;28;20032;-70
2022/11/19 11:08:48;;;;;;;37.33;18.80;;;;;;;9.90;44.01;101416.31;5050093;28;20035;-70
2022/11/19 11:17:03;;;;;;;30.93;16.27;;;;;;;9.18;46.11;101422.16;5050691;28;20035;-70
2022/11/19 11:19:29;;;;;;;33.00;17.20;;;;;;;8.91;47.27;101417.66;5050423;28;20052;-70
2022/11/19 11:21:56;;;;;;;38.07;18.07;;;;;;;9.04;45.94;101423.81;5080382;28;20544;-70
2022/11/19 11:24:33;;;;;;;40.13;19.73;;;;;;;9.40;45.97;101422.25;5047005;28;20025;-70
2022/11/19 11:27:19;;;;;;;36.10;17.90;;;;;;;9.90;45.09;101413.69;5050647;28;20036;-70
2022/11/19 11:29:45;;;;;;;35.10;18.73;;;;;;;10.39;45.07;101418.16;5049483;28;20028;-70
2022/11/19 11:32:30;;;;;;;33.13;18.57;;;;;;;10.87;44.10;101420.72;5050044;28;20493;-70
2022/11/19 11:34:56;;;;;;;31.63;17.27;;;;;;;10.57;43.13;101413.81;5046806;28;20091;-70
2022/11/19 11:37:23;;;;;;;34.60;18.10;;;;;;;10.45;42.68;101427.72;5050354;28;20017;-70
2022/11/19 11:39:53;;;;;;;32.07;16.47;;;;;;;10.77;42.88;101424.22;5048842;28;20028;-70